createdAt,value
2019-01-16T00:02:20.273Z,5.13
2019-01-16T00:04:56.242Z,5.43
2019-01-16T00:07:35.108Z,9.03
2019-01-16T00:10:09.345Z,10.97
2019-01-16T00:12:48.557Z,2.77
2019-01-16T00:15:18.529Z,3.17
2019-01-16T00:17:51.216Z,7.23
2019-01-16T00:20:21.197Z,4.83
2019-01-16T00:22:57.798Z,9.87
2019-01-16T00:25:33.889Z,4.13
2019-01-16T00:28:06.865Z,6.53
2019-01-16T00:30:46.000Z,7.47
2019-01-16T00:33:30.953Z,11.93
2019-01-16T00:36:03.870Z,11.60
2019-01-16T00:38:45.880Z,8.07
2019-01-16T00:41:15.854Z,10.93
2019-01-16T00:43:48.794Z,6.67
2019-01-16T00:46:24.973Z,6.97
2019-01-16T00:49:06.853Z,10.03
2019-01-16T00:51:53.425Z,11.03
2019-01-16T00:54:23.416Z,14.87
2019-01-16T00:56:59.216Z,11.33
2019-01-16T00:59:29.280Z,11.10
2019-01-16T01:02:11.093Z,9.77
2019-01-16T01:04:47.032Z,9.53
2019-01-16T01:07:28.880Z,6.23
2019-01-16T01:10:01.834Z,12.07
2019-01-16T01:12:40.906Z,11.93
2019-01-16T01:15:29.170Z,8.07
2019-01-16T01:18:01.869Z,11.13
2019-01-16T01:20:31.850Z,11.40
2019-01-16T01:23:10.808Z,7.30
2019-01-16T01:25:49.684Z,12.60
2019-01-16T01:28:19.670Z,7.53
2019-01-16T01:30:52.694Z,9.83
2019-01-16T01:33:22.684Z,11.57
2019-01-16T01:35:58.429Z,13.17
2019-01-16T01:38:28.658Z,9.20
2019-01-16T01:41:15.182Z,11.60
2019-01-16T01:43:53.988Z,9.50
2019-01-16T01:46:40.581Z,7.60
2019-01-16T01:49:10.541Z,12.77
2019-01-16T01:51:40.537Z,15.67
2019-01-16T01:54:13.235Z,16.57
2019-01-16T01:57:01.494Z,15.07
2019-01-16T01:59:46.394Z,10.00
2019-01-16T02:02:22.112Z,4.33
2019-01-16T02:04:55.005Z,14.67
2019-01-16T02:07:40.262Z,9.37
2019-01-16T02:10:13.714Z,16.43
2019-01-16T02:13:00.169Z,16.77
2019-01-16T02:15:46.653Z,7.63
2019-01-16T02:18:25.727Z,17.33
2019-01-16T02:20:55.720Z,18.83
2019-01-16T02:23:28.465Z,19.27
2019-01-16T02:26:03.885Z,9.63
2019-01-16T02:28:45.745Z,14.50
2019-01-16T02:31:15.721Z,7.93
2019-01-16T02:33:54.899Z,13.33
2019-01-16T02:36:24.882Z,11.17
2019-01-16T02:38:57.564Z,13.57
2019-01-16T02:41:36.601Z,12.03
2019-01-16T02:44:12.390Z,14.20
2019-01-16T02:46:42.362Z,7.63
2019-01-16T02:49:15.133Z,11.67
2019-01-16T02:51:54.062Z,11.60
2019-01-16T02:54:24.049Z,13.77
2019-01-16T02:57:10.254Z,13.03
2019-01-16T02:59:43.340Z,16.20
2019-01-16T03:02:25.518Z,10.27
2019-01-16T03:05:13.789Z,20.20
2019-01-16T03:07:43.782Z,15.10
2019-01-16T03:10:28.811Z,16.90
2019-01-16T03:13:01.561Z,8.27
2019-01-16T03:15:48.282Z,15.90
2019-01-16T03:18:30.515Z,18.73
2019-01-16T03:21:07.195Z,15.50
2019-01-16T03:23:43.297Z,11.73
2019-01-16T03:26:29.786Z,14.57
2019-01-16T03:29:05.523Z,10.20
2019-01-16T03:31:44.261Z,11.57
2019-01-16T03:34:17.215Z,24.97
2019-01-16T03:36:49.924Z,21.33
2019-01-16T03:39:19.919Z,28.93
2019-01-16T03:42:06.188Z,28.90
2019-01-16T03:44:36.180Z,10.73
2019-01-16T03:47:22.508Z,15.20
2019-01-16T03:49:58.610Z,10.53
2019-01-16T03:52:32.482Z,24.23
2019-01-16T03:55:05.401Z,27.23
2019-01-16T03:57:35.400Z,25.30
2019-01-16T04:00:18.615Z,11.77
2019-01-16T04:03:04.934Z,15.80
2019-01-16T04:05:37.592Z,29.70
2019-01-16T04:08:10.681Z,18.73
2019-01-16T04:10:43.382Z,16.80
2019-01-16T04:13:29.865Z,30.03
2019-01-16T04:16:05.805Z,18.93
2019-01-16T04:18:52.405Z,16.47
2019-01-16T04:21:22.397Z,30.70
2019-01-16T04:24:04.589Z,24.43
2019-01-16T04:26:34.573Z,20.17
2019-01-16T04:29:20.863Z,15.03
2019-01-16T04:31:50.851Z,23.37
2019-01-16T04:34:20.837Z,26.73
2019-01-16T04:36:59.809Z,28.23
2019-01-16T04:39:32.722Z,15.57
2019-01-16T04:42:19.045Z,28.00
2019-01-16T04:44:49.041Z,27.80
2019-01-16T04:47:27.804Z,27.53
2019-01-16T04:50:13.062Z,27.50
2019-01-16T04:52:59.689Z,21.13
2019-01-16T04:55:46.221Z,29.60
2019-01-16T04:58:25.327Z,28.20
2019-01-16T05:01:11.609Z,21.23
2019-01-16T05:03:47.617Z,24.20
2019-01-16T05:06:23.602Z,18.37
2019-01-16T05:09:02.470Z,23.33
2019-01-16T05:11:39.775Z,22.30
2019-01-16T05:14:12.290Z,27.57
2019-01-16T05:16:45.291Z,25.67
2019-01-16T05:19:24.127Z,24.90
2019-01-16T05:22:00.113Z,12.73
2019-01-16T05:24:30.401Z,21.03
2019-01-16T05:27:09.396Z,21.17
2019-01-16T05:29:42.523Z,26.37
2019-01-16T05:32:14.106Z,13.60
2019-01-16T05:34:53.239Z,27.43
2019-01-16T05:37:31.838Z,25.43
2019-01-16T05:40:10.741Z,18.53
2019-01-16T05:42:52.346Z,20.07
2019-01-16T05:45:22.332Z,22.27
2019-01-16T05:47:58.238Z,19.87
2019-01-16T05:50:34.211Z,12.97
2019-01-16T05:53:10.142Z,21.53
2019-01-16T05:55:43.245Z,21.07
2019-01-16T05:58:19.301Z,10.37
2019-01-16T06:00:55.378Z,13.23
2019-01-16T06:03:25.738Z,12.87
2019-01-16T06:06:12.229Z,14.93
2019-01-16T06:08:48.383Z,20.37
2019-01-16T06:11:23.063Z,17.27
2019-01-16T06:14:08.138Z,8.53
2019-01-16T06:16:47.129Z,17.33
2019-01-16T06:19:20.068Z,17.03
2019-01-16T06:21:50.063Z,11.80
2019-01-16T06:24:20.042Z,12.57
2019-01-16T06:26:59.257Z,13.67
2019-01-16T06:29:35.378Z,10.50
2019-01-16T06:32:11.796Z,9.17
2019-01-16T06:34:47.699Z,15.30
2019-01-16T06:37:17.682Z,14.10
2019-01-16T06:39:47.669Z,13.77
2019-01-16T06:42:20.532Z,11.53
2019-01-16T06:44:53.237Z,10.97
2019-01-16T06:47:23.588Z,12.93
2019-01-16T06:50:01.671Z,10.83
2019-01-16T06:52:28.242Z,14.53
2019-01-16T06:55:07.822Z,19.53
2019-01-16T06:57:50.047Z,15.40
2019-01-16T07:00:22.793Z,8.47
2019-01-16T07:03:09.266Z,14.33
2019-01-16T07:05:39.525Z,15.83
2019-01-16T07:08:18.245Z,11.70
2019-01-16T07:10:50.906Z,13.97
2019-01-16T07:13:26.638Z,15.80
2019-01-16T07:15:59.586Z,17.47
2019-01-16T07:18:41.663Z,10.70
2019-01-16T07:21:17.423Z,14.10
2019-01-16T07:23:47.420Z,10.87
2019-01-16T07:26:34.106Z,9.83
2019-01-16T07:29:20.564Z,6.83
2019-01-16T07:31:52.142Z,11.03
2019-01-16T07:34:35.371Z,6.07
2019-01-16T07:37:17.014Z,10.50
2019-01-16T07:39:53.004Z,13.37
2019-01-16T07:42:25.993Z,10.97
2019-01-16T07:44:55.992Z,4.20
2019-01-16T07:47:29.166Z,8.90
2019-01-16T07:50:17.401Z,7.70
2019-01-16T07:52:47.573Z,11.60
2019-01-16T07:55:33.988Z,10.00
2019-01-16T07:58:03.977Z,10.93
2019-01-16T08:00:43.005Z,6.20
2019-01-16T08:03:28.247Z,9.07
2019-01-16T08:05:58.214Z,7.97
2019-01-16T08:08:44.869Z,9.47
2019-01-16T08:11:27.357Z,8.30
2019-01-16T08:14:15.765Z,8.27
2019-01-16T08:16:45.746Z,5.40
2019-01-16T08:19:18.718Z,10.03
2019-01-16T08:21:54.571Z,3.47
2019-01-16T08:24:28.498Z,8.17
2019-01-16T08:26:59.556Z,6.40
2019-01-16T08:29:35.216Z,3.70
2019-01-16T08:32:14.261Z,6.73
2019-01-16T08:34:56.466Z,6.53
2019-01-16T08:37:35.511Z,5.70
2019-01-16T08:40:23.519Z,5.97
2019-01-16T08:43:10.070Z,5.87
2019-01-16T08:45:46.206Z,4.33
2019-01-16T08:48:22.138Z,2.90
2019-01-16T08:50:58.221Z,2.50
2019-01-16T08:53:37.472Z,4.43
2019-01-16T08:56:16.695Z,2.20
2019-01-16T08:58:58.604Z,3.80
2019-01-16T09:01:43.935Z,3.60
2019-01-16T09:04:23.078Z,4.53
2019-01-16T09:06:53.121Z,5.07
2019-01-16T09:09:29.363Z,5.83
2019-01-16T09:11:59.338Z,4.13
2019-01-16T09:14:47.562Z,4.67
2019-01-16T09:17:33.777Z,5.97
2019-01-16T09:20:09.645Z,4.67
2019-01-16T09:22:40.092Z,4.13
2019-01-16T09:25:16.185Z,5.83
2019-01-16T09:28:02.478Z,3.53
2019-01-16T09:30:44.685Z,4.60
2019-01-16T09:33:17.393Z,6.03
2019-01-16T09:35:54.594Z,4.17
2019-01-16T09:38:30.519Z,5.50
2019-01-16T09:41:00.486Z,2.70
2019-01-16T09:43:30.454Z,2.63
2019-01-16T09:46:12.869Z,3.10
2019-01-16T09:48:59.166Z,2.57
2019-01-16T09:51:47.294Z,5.97
2019-01-16T09:54:17.275Z,5.93
2019-01-16T09:57:05.219Z,4.17
2019-01-16T09:59:47.322Z,4.03
2019-01-16T10:02:32.325Z,4.97
2019-01-16T10:05:02.312Z,2.87
2019-01-16T10:07:32.273Z,4.63
2019-01-16T10:10:02.246Z,4.70
2019-01-16T10:12:38.209Z,6.87
2019-01-16T10:15:15.582Z,3.13
2019-01-16T10:17:51.148Z,8.27
2019-01-16T10:20:30.154Z,5.17
2019-01-16T10:23:09.402Z,4.23
2019-01-16T10:25:39.368Z,3.87
2019-01-16T10:28:12.326Z,6.97
2019-01-16T10:30:45.295Z,4.63
2019-01-16T10:33:31.643Z,5.50
2019-01-16T10:36:16.838Z,7.97
2019-01-16T10:38:55.865Z,8.47
2019-01-16T10:41:34.824Z,5.90
2019-01-16T10:44:04.818Z,6.13
2019-01-16T10:46:34.791Z,4.37
2019-01-16T10:49:16.764Z,6.93
2019-01-16T10:52:03.191Z,6.57
2019-01-16T10:54:36.146Z,8.27
2019-01-16T10:57:22.686Z,7.90
2019-01-16T11:00:07.977Z,6.63
2019-01-16T11:02:45.166Z,12.47
2019-01-16T11:05:15.143Z,5.80
2019-01-16T11:07:51.134Z,11.93
2019-01-16T11:10:21.126Z,18.10
2019-01-16T11:12:54.289Z,10.03
2019-01-16T11:15:30.558Z,10.13
2019-01-16T11:18:18.902Z,8.23
2019-01-16T11:20:49.009Z,7.43
2019-01-16T11:23:36.620Z,7.27
2019-01-16T11:26:06.752Z,10.33
2019-01-16T11:28:39.513Z,11.00
2019-01-16T11:31:12.283Z,11.83
2019-01-16T11:33:51.229Z,6.40
2019-01-16T11:36:30.249Z,12.93
2019-01-16T11:39:01.850Z,15.07
2019-01-16T11:41:48.365Z,11.83
2019-01-16T11:44:24.219Z,14.97
2019-01-16T11:46:54.199Z,10.23
2019-01-16T11:49:40.874Z,9.17
2019-01-16T11:52:30.861Z,8.43
2019-01-16T11:55:00.850Z,11.37
2019-01-16T11:57:49.443Z,11.33
2019-01-16T12:00:37.553Z,8.40
2019-01-16T12:03:13.507Z,7.30
2019-01-16T12:06:00.197Z,14.57
2019-01-16T12:08:30.158Z,5.63
2019-01-16T12:11:02.862Z,6.80
2019-01-16T12:13:47.688Z,6.27
2019-01-16T12:16:20.442Z,4.83
2019-01-16T12:19:08.171Z,9.83
2019-01-16T12:21:38.149Z,11.07
2019-01-16T12:24:13.952Z,10.40
2019-01-16T12:26:43.991Z,6.70
2019-01-16T12:29:19.737Z,8.33
2019-01-16T12:32:07.025Z,5.50
2019-01-16T12:34:37.006Z,4.87
2019-01-16T12:37:09.950Z,13.17
2019-01-16T12:39:48.990Z,5.57
2019-01-16T12:42:28.101Z,10.17
2019-01-16T12:44:58.812Z,5.83
2019-01-16T12:47:37.853Z,6.73
2019-01-16T12:50:25.510Z,13.67
2019-01-16T12:53:07.263Z,5.07
2019-01-16T12:55:40.200Z,11.43
2019-01-16T12:58:25.453Z,7.13
2019-01-16T13:00:55.418Z,7.83
2019-01-16T13:03:42.057Z,15.23
2019-01-16T13:06:20.651Z,13.23
2019-01-16T13:08:56.379Z,7.00
2019-01-16T13:11:29.304Z,7.80
2019-01-16T13:13:59.289Z,10.13
2019-01-16T13:16:41.214Z,10.60
2019-01-16T13:19:29.322Z,11.70
2019-01-16T13:22:15.289Z,7.47
2019-01-16T13:24:53.409Z,13.03
2019-01-16T13:27:29.378Z,6.33
2019-01-16T13:30:02.095Z,9.43
2019-01-16T13:32:34.958Z,5.83
2019-01-16T13:35:11.068Z,8.57
2019-01-16T13:37:43.818Z,8.63
2019-01-16T13:40:27.559Z,12.53
2019-01-16T13:43:13.823Z,7.17
2019-01-16T13:46:01.693Z,10.13
2019-01-16T13:48:52.760Z,12.13
2019-01-16T13:51:37.145Z,5.83
2019-01-16T13:54:07.142Z,7.73
2019-01-16T13:56:52.082Z,10.47
2019-01-16T13:59:22.070Z,9.60
2019-01-16T14:01:55.273Z,5.77
2019-01-16T14:04:25.238Z,8.77
2019-01-16T14:07:07.137Z,11.67
2019-01-16T14:09:40.076Z,12.03
2019-01-16T14:12:13.001Z,15.37
2019-01-16T14:14:52.178Z,8.73
2019-01-16T14:17:37.405Z,4.93
2019-01-16T14:20:11.914Z,8.50
2019-01-16T14:22:47.955Z,9.53
2019-01-16T14:25:34.633Z,4.97
2019-01-16T14:28:07.393Z,5.93
2019-01-16T14:30:53.736Z,5.03
2019-01-16T14:33:24.993Z,9.93
2019-01-16T14:35:57.673Z,9.70
2019-01-16T14:38:30.595Z,13.60
2019-01-16T14:41:15.280Z,4.63
2019-01-16T14:43:45.345Z,9.07
2019-01-16T14:46:18.281Z,8.53
2019-01-16T14:48:51.205Z,5.57
2019-01-16T14:51:33.349Z,8.83
2019-01-16T14:54:09.301Z,9.73
2019-01-16T14:56:39.470Z,14.37
2019-01-16T14:59:24.798Z,5.50
2019-01-16T15:02:00.492Z,6.47
2019-01-16T15:04:46.863Z,4.53
2019-01-16T15:07:19.965Z,11.03
2019-01-16T15:09:49.968Z,7.30
2019-01-16T15:12:20.114Z,10.30
2019-01-16T15:14:53.884Z,9.70
2019-01-16T15:17:39.110Z,10.20
2019-01-16T15:20:13.836Z,8.80
2019-01-16T15:22:52.969Z,3.33
2019-01-16T15:25:31.999Z,11.77
2019-01-16T15:28:01.977Z,3.57
2019-01-16T15:30:41.209Z,9.93
2019-01-16T15:33:14.113Z,7.77
2019-01-16T15:36:00.633Z,8.47
2019-01-16T15:38:47.209Z,9.20
2019-01-16T15:41:29.438Z,11.37
2019-01-16T15:44:08.454Z,7.47
2019-01-16T15:46:44.168Z,11.37
2019-01-16T15:49:30.673Z,10.73
2019-01-16T15:52:03.837Z,5.40
2019-01-16T15:54:42.813Z,7.37
2019-01-16T15:57:25.031Z,9.13
2019-01-16T15:59:56.090Z,6.37
2019-01-16T16:02:26.057Z,8.57
2019-01-16T16:05:05.168Z,8.97
2019-01-16T16:07:38.085Z,11.20
2019-01-16T16:10:15.277Z,3.63
2019-01-16T16:12:51.244Z,8.20
2019-01-16T16:15:26.915Z,9.47
2019-01-16T16:18:02.944Z,11.70
2019-01-16T16:20:49.241Z,6.60
2019-01-16T16:23:19.222Z,6.80
2019-01-16T16:25:55.141Z,2.10
2019-01-16T16:28:34.414Z,7.43
2019-01-16T16:31:07.317Z,5.40
2019-01-16T16:33:46.258Z,3.17
2019-01-16T16:36:22.054Z,6.63
2019-01-16T16:38:52.117Z,9.50
2019-01-16T16:41:22.092Z,4.40
2019-01-16T16:44:10.456Z,7.73
2019-01-16T16:46:40.448Z,4.67
2019-01-16T16:49:15.946Z,5.30
2019-01-16T16:51:48.914Z,10.27
2019-01-16T16:54:34.196Z,6.13
2019-01-16T16:57:09.996Z,9.30
2019-01-16T16:59:42.385Z,7.03
2019-01-16T17:02:18.357Z,5.77
2019-01-16T17:04:51.377Z,13.97
2019-01-16T17:07:30.163Z,10.20
2019-01-16T17:10:00.180Z,8.63
2019-01-16T17:12:32.977Z,9.33
2019-01-16T17:15:11.925Z,8.23
2019-01-16T17:17:47.842Z,7.07
2019-01-16T17:20:18.615Z,10.03
2019-01-16T17:22:51.297Z,16.40
2019-01-16T17:25:24.254Z,8.27
2019-01-16T17:27:57.030Z,10.90
2019-01-16T17:30:27.012Z,25.37
2019-01-16T17:33:03.000Z,68.00
2019-01-16T17:35:32.990Z,52.60
2019-01-16T17:38:08.997Z,32.30
2019-01-16T17:40:44.757Z,26.53
2019-01-16T17:43:23.773Z,27.83
2019-01-16T17:46:10.248Z,21.70
2019-01-16T17:48:40.233Z,14.00
2019-01-16T17:51:10.209Z,19.13
2019-01-16T17:53:42.965Z,15.50
2019-01-16T17:56:12.933Z,15.17
2019-01-16T17:58:47.353Z,14.50
2019-01-16T18:01:33.759Z,14.53
2019-01-16T18:04:06.804Z,11.87
2019-01-16T18:06:36.789Z,10.80
2019-01-16T18:09:10.441Z,11.97
2019-01-16T18:11:55.473Z,13.77
2019-01-16T18:14:25.460Z,13.50
2019-01-16T18:17:13.036Z,14.17
2019-01-16T18:20:01.032Z,13.10
2019-01-16T18:22:34.170Z,13.97
2019-01-16T18:25:10.245Z,8.67
2019-01-16T18:27:56.851Z,13.97
2019-01-16T18:30:29.757Z,14.63
2019-01-16T18:33:05.727Z,9.43
2019-01-16T18:35:35.718Z,10.17
2019-01-16T18:38:05.706Z,6.03
2019-01-16T18:40:44.711Z,9.33
2019-01-16T18:43:20.645Z,11.57
2019-01-16T18:46:06.684Z,10.50
2019-01-16T18:48:48.793Z,8.20
2019-01-16T18:51:21.757Z,10.80
2019-01-16T18:54:06.688Z,15.27
2019-01-16T18:56:39.429Z,9.07
2019-01-16T18:59:12.121Z,8.87
2019-01-16T19:01:42.086Z,9.00
2019-01-16T19:04:21.298Z,10.93
2019-01-16T19:07:07.805Z,17.80
2019-01-16T19:09:37.785Z,21.03
2019-01-16T19:12:07.777Z,16.80
2019-01-16T19:14:40.881Z,14.40
2019-01-16T19:17:20.070Z,12.77
2019-01-16T19:20:08.490Z,16.67
2019-01-16T19:22:38.758Z,10.50
2019-01-16T19:25:08.754Z,11.70
2019-01-16T19:27:44.564Z,9.37
2019-01-16T19:30:18.238Z,20.10
2019-01-16T19:33:04.798Z,7.80
2019-01-16T19:35:37.442Z,9.57
2019-01-16T19:38:13.422Z,6.70
2019-01-16T19:40:58.354Z,7.90
2019-01-16T19:43:45.373Z,8.47
2019-01-16T19:46:15.359Z,15.87
2019-01-16T19:48:52.317Z,13.10
2019-01-16T19:51:38.778Z,9.93
2019-01-16T19:54:17.711Z,11.50
2019-01-16T19:56:56.966Z,12.30
2019-01-16T19:59:26.945Z,18.97
2019-01-16T20:02:13.154Z,8.57
2019-01-16T20:04:59.661Z,15.93
2019-01-16T20:07:32.413Z,7.80
2019-01-16T20:10:02.389Z,4.03
2019-01-16T20:12:41.331Z,18.53
2019-01-16T20:15:29.712Z,6.73
2019-01-16T20:18:02.517Z,11.50
2019-01-16T20:20:50.394Z,18.63
2019-01-16T20:23:38.754Z,7.37
2019-01-16T20:26:14.896Z,14.80
2019-01-16T20:29:01.162Z,13.27
2019-01-16T20:31:32.732Z,10.43
2019-01-16T20:34:17.941Z,6.00
2019-01-16T20:36:53.745Z,11.23
2019-01-16T20:39:39.996Z,7.60
2019-01-16T20:42:12.970Z,10.57
2019-01-16T20:44:42.956Z,15.00
2019-01-16T20:47:12.930Z,13.07
2019-01-16T20:49:48.868Z,12.57
2019-01-16T20:52:24.584Z,10.33
2019-01-16T20:55:09.514Z,9.27
2019-01-16T20:57:42.168Z,9.93
2019-01-16T21:00:16.437Z,9.47
2019-01-16T21:03:01.589Z,21.40
2019-01-16T21:05:31.569Z,10.47
2019-01-16T21:08:07.315Z,13.33
2019-01-16T21:10:53.800Z,10.17
2019-01-16T21:13:26.589Z,10.43
2019-01-16T21:15:59.470Z,18.27
2019-01-16T21:18:38.486Z,15.47
2019-01-16T21:21:14.324Z,9.93
2019-01-16T21:23:50.093Z,14.47
2019-01-16T21:26:29.117Z,14.03
2019-01-16T21:29:14.342Z,5.83
2019-01-16T21:31:50.196Z,7.67
2019-01-16T21:34:26.165Z,12.23
2019-01-16T21:36:56.878Z,11.97
2019-01-16T21:39:29.853Z,17.80
2019-01-16T21:42:16.923Z,16.37
2019-01-16T21:44:49.912Z,9.63
2019-01-16T21:47:36.715Z,12.50
2019-01-16T21:50:08.385Z,14.77
2019-01-16T21:52:47.324Z,19.43
2019-01-16T21:55:32.320Z,9.00
2019-01-16T21:58:14.358Z,13.10
2019-01-16T22:00:45.173Z,13.03
2019-01-16T22:03:27.444Z,18.40
2019-01-16T22:06:03.585Z,17.67
2019-01-16T22:08:33.573Z,12.50
2019-01-16T22:11:03.549Z,15.83
2019-01-16T22:13:36.209Z,11.97
2019-01-16T22:16:08.905Z,21.73
2019-01-16T22:18:57.169Z,16.93
2019-01-16T22:21:43.474Z,16.23
2019-01-16T22:24:13.469Z,18.80
2019-01-16T22:26:43.442Z,15.37
2019-01-16T22:29:22.196Z,10.13
2019-01-16T22:31:55.140Z,8.57
2019-01-16T22:34:33.915Z,7.10
2019-01-16T22:37:03.876Z,8.47
2019-01-16T22:39:46.024Z,17.40
2019-01-16T22:42:24.798Z,10.67
2019-01-16T22:45:09.874Z,16.77
2019-01-16T22:47:39.861Z,15.80
2019-01-16T22:50:11.460Z,19.47
2019-01-16T22:52:50.440Z,10.27
2019-01-16T22:55:36.452Z,11.73
2019-01-16T22:58:06.451Z,15.97
2019-01-16T23:00:42.197Z,8.23
2019-01-16T23:03:30.154Z,4.60
2019-01-16T23:06:16.597Z,4.83
2019-01-16T23:08:46.573Z,3.80
2019-01-16T23:11:22.685Z,2.73
2019-01-16T23:13:55.642Z,1.40
2019-01-16T23:16:28.558Z,2.90
2019-01-16T23:19:01.465Z,2.97
2019-01-16T23:21:34.450Z,3.67
2019-01-16T23:24:04.829Z,2.10
2019-01-16T23:26:51.394Z,4.10
2019-01-16T23:29:21.374Z,1.60
2019-01-16T23:31:51.343Z,1.00
2019-01-16T23:34:37.864Z,1.30
2019-01-16T23:37:19.645Z,6.23
2019-01-16T23:39:55.958Z,3.33
2019-01-16T23:42:44.177Z,2.80
2019-01-16T23:45:16.930Z,1.63
2019-01-16T23:47:53.142Z,1.83
2019-01-16T23:50:35.362Z,3.47
2019-01-16T23:53:05.344Z,3.00
2019-01-16T23:55:51.605Z,1.30
2019-01-16T23:58:30.672Z,2.57
